sensor_id;sensor_type;location;lat;lon;timestamp;P1;durP1;ratioP1;P2;durP2;ratioP2
51248;SDS011;39642;47.556;18.728;2023-05-07T00:01:56;10.50;;;4.25;;
51248;SDS011;39642;47.556;18.728;2023-05-07T00:04:22;9.73;;;4.05;;
51248;SDS011;39642;47.556;18.728;2023-05-07T00:06:48;10.32;;;3.95;;
51248;SDS011;39642;47.556;18.728;2023-05-07T00:09:14;10.13;;;4.37;;
51248;SDS011;39642;47.556;18.728;2023-05-07T00:11:40;10.18;;;4.30;;
51248;SDS011;39642;47.556;18.728;2023-05-07T00:14:06;10.70;;;4.22;;
51248;SDS011;39642;47.556;18.728;2023-05-07T00:16:32;10.30;;;4.50;;
51248;SDS011;39642;47.556;18.728;2023-05-07T00:18:58;9.85;;;4.12;;
51248;SDS011;39642;47.556;18.728;2023-05-07T00:21:23;10.10;;;4.50;;
51248;SDS011;39642;47.556;18.728;2023-05-07T00:23:52;10.05;;;4.32;;
51248;SDS011;39642;47.556;18.728;2023-05-07T00:26:19;9.82;;;4.15;;
51248;SDS011;39642;47.556;18.728;2023-05-07T00:28:45;9.32;;;4.12;;
51248;SDS011;39642;47.556;18.728;2023-05-07T00:31:10;10.82;;;4.30;;
51248;SDS011;39642;47.556;18.728;2023-05-07T00:33:37;9.55;;;4.20;;
51248;SDS011;39642;47.556;18.728;2023-05-07T00:36:03;10.30;;;4.15;;
51248;SDS011;39642;47.556;18.728;2023-05-07T00:38:29;10.00;;;4.20;;
51248;SDS011;39642;47.556;18.728;2023-05-07T00:40:55;9.55;;;4.10;;
51248;SDS011;39642;47.556;18.728;2023-05-07T00:43:21;10.75;;;4.05;;
51248;SDS011;39642;47.556;18.728;2023-05-07T00:45:47;10.68;;;4.60;;
51248;SDS011;39642;47.556;18.728;2023-05-07T00:48:13;9.93;;;4.30;;
51248;SDS011;39642;47.556;18.728;2023-05-07T00:50:40;9.48;;;4.05;;
51248;SDS011;39642;47.556;18.728;2023-05-07T00:53:06;9.80;;;4.28;;
51248;SDS011;39642;47.556;18.728;2023-05-07T00:55:32;9.85;;;4.12;;
51248;SDS011;39642;47.556;18.728;2023-05-07T00:57:58;9.70;;;4.40;;
51248;SDS011;39642;47.556;18.728;2023-05-07T01:00:24;10.82;;;4.32;;
51248;SDS011;39642;47.556;18.728;2023-05-07T01:02:50;10.32;;;4.45;;
51248;SDS011;39642;47.556;18.728;2023-05-07T01:05:17;10.15;;;4.18;;
51248;SDS011;39642;47.556;18.728;2023-05-07T01:07:44;9.73;;;4.18;;
51248;SDS011;39642;47.556;18.728;2023-05-07T01:10:11;10.32;;;4.43;;
51248;SDS011;39642;47.556;18.728;2023-05-07T01:12:37;10.13;;;4.20;;
51248;SDS011;39642;47.556;18.728;2023-05-07T01:15:05;10.80;;;4.20;;
51248;SDS011;39642;47.556;18.728;2023-05-07T01:17:34;10.20;;;4.30;;
51248;SDS011;39642;47.556;18.728;2023-05-07T01:20:02;9.38;;;4.22;;
51248;SDS011;39642;47.556;18.728;2023-05-07T01:22:37;9.90;;;4.12;;
51248;SDS011;39642;47.556;18.728;2023-05-07T01:25:04;10.48;;;4.47;;
51248;SDS011;39642;47.556;18.728;2023-05-07T01:27:31;9.10;;;4.12;;
51248;SDS011;39642;47.556;18.728;2023-05-07T01:29:58;9.95;;;4.00;;
51248;SDS011;39642;47.556;18.728;2023-05-07T01:32:45;9.05;;;4.10;;
51248;SDS011;39642;47.556;18.728;2023-05-07T01:35:21;10.00;;;4.07;;
51248;SDS011;39642;47.556;18.728;2023-05-07T01:37:50;8.85;;;3.95;;
51248;SDS011;39642;47.556;18.728;2023-05-07T01:40:16;9.85;;;4.28;;
51248;SDS011;39642;47.556;18.728;2023-05-07T01:42:42;10.07;;;4.22;;
51248;SDS011;39642;47.556;18.728;2023-05-07T01:45:09;9.95;;;4.40;;
51248;SDS011;39642;47.556;18.728;2023-05-07T01:47:36;9.45;;;4.12;;
51248;SDS011;39642;47.556;18.728;2023-05-07T01:50:03;11.27;;;4.30;;
51248;SDS011;39642;47.556;18.728;2023-05-07T01:52:33;10.63;;;4.40;;
51248;SDS011;39642;47.556;18.728;2023-05-07T01:54:59;10.30;;;4.35;;
51248;SDS011;39642;47.556;18.728;2023-05-07T01:57:25;10.07;;;4.30;;
51248;SDS011;39642;47.556;18.728;2023-05-07T01:59:51;9.93;;;4.18;;
51248;SDS011;39642;47.556;18.728;2023-05-07T02:02:17;9.70;;;4.40;;
51248;SDS011;39642;47.556;18.728;2023-05-07T02:04:43;9.43;;;3.95;;
51248;SDS011;39642;47.556;18.728;2023-05-07T02:07:09;9.27;;;4.20;;
51248;SDS011;39642;47.556;18.728;2023-05-07T02:09:35;9.52;;;4.22;;
51248;SDS011;39642;47.556;18.728;2023-05-07T02:12:01;10.07;;;4.28;;
51248;SDS011;39642;47.556;18.728;2023-05-07T02:14:27;11.75;;;4.05;;
51248;SDS011;39642;47.556;18.728;2023-05-07T02:16:53;10.05;;;4.12;;
51248;SDS011;39642;47.556;18.728;2023-05-07T02:19:19;11.57;;;4.72;;
51248;SDS011;39642;47.556;18.728;2023-05-07T02:21:46;11.57;;;4.30;;
51248;SDS011;39642;47.556;18.728;2023-05-07T02:24:13;9.15;;;3.92;;
51248;SDS011;39642;47.556;18.728;2023-05-07T02:26:39;10.13;;;4.20;;
51248;SDS011;39642;47.556;18.728;2023-05-07T02:29:06;10.57;;;4.28;;
51248;SDS011;39642;47.556;18.728;2023-05-07T02:31:32;9.63;;;3.78;;
51248;SDS011;39642;47.556;18.728;2023-05-07T02:33:59;9.73;;;4.28;;
51248;SDS011;39642;47.556;18.728;2023-05-07T02:36:26;12.35;;;4.30;;
51248;SDS011;39642;47.556;18.728;2023-05-07T02:38:52;9.57;;;4.07;;
51248;SDS011;39642;47.556;18.728;2023-05-07T02:41:18;9.38;;;3.97;;
51248;SDS011;39642;47.556;18.728;2023-05-07T02:43:44;9.48;;;4.20;;
51248;SDS011;39642;47.556;18.728;2023-05-07T02:46:10;9.73;;;4.20;;
51248;SDS011;39642;47.556;18.728;2023-05-07T02:48:36;9.23;;;3.97;;
51248;SDS011;39642;47.556;18.728;2023-05-07T02:51:02;9.93;;;3.97;;
51248;SDS011;39642;47.556;18.728;2023-05-07T02:53:28;11.65;;;4.30;;
51248;SDS011;39642;47.556;18.728;2023-05-07T02:55:55;10.63;;;4.05;;
51248;SDS011;39642;47.556;18.728;2023-05-07T02:58:22;11.15;;;4.45;;
51248;SDS011;39642;47.556;18.728;2023-05-07T03:00:48;10.20;;;4.03;;
51248;SDS011;39642;47.556;18.728;2023-05-07T03:03:14;10.30;;;4.32;;
51248;SDS011;39642;47.556;18.728;2023-05-07T03:05:40;9.60;;;3.80;;
51248;SDS011;39642;47.556;18.728;2023-05-07T03:08:07;11.20;;;3.72;;
51248;SDS011;39642;47.556;18.728;2023-05-07T03:10:33;9.77;;;4.00;;
51248;SDS011;39642;47.556;18.728;2023-05-07T03:12:59;10.63;;;4.05;;
51248;SDS011;39642;47.556;18.728;2023-05-07T03:15:26;10.45;;;3.95;;
51248;SDS011;39642;47.556;18.728;2023-05-07T03:17:52;9.10;;;3.70;;
51248;SDS011;39642;47.556;18.728;2023-05-07T03:20:17;9.52;;;3.97;;
51248;SDS011;39642;47.556;18.728;2023-05-07T03:22:43;9.43;;;3.90;;
51248;SDS011;39642;47.556;18.728;2023-05-07T03:25:09;9.52;;;4.03;;
51248;SDS011;39642;47.556;18.728;2023-05-07T03:27:36;9.52;;;4.12;;
51248;SDS011;39642;47.556;18.728;2023-05-07T03:30:02;10.98;;;4.00;;
51248;SDS011;39642;47.556;18.728;2023-05-07T03:32:28;9.85;;;3.87;;
51248;SDS011;39642;47.556;18.728;2023-05-07T03:34:54;9.55;;;4.07;;
51248;SDS011;39642;47.556;18.728;2023-05-07T03:37:19;10.27;;;4.20;;
51248;SDS011;39642;47.556;18.728;2023-05-07T03:39:47;9.98;;;3.67;;
51248;SDS011;39642;47.556;18.728;2023-05-07T03:42:13;9.52;;;3.62;;
51248;SDS011;39642;47.556;18.728;2023-05-07T03:44:39;9.25;;;3.75;;
51248;SDS011;39642;47.556;18.728;2023-05-07T03:47:05;8.90;;;3.62;;
51248;SDS011;39642;47.556;18.728;2023-05-07T03:49:31;9.05;;;3.80;;
51248;SDS011;39642;47.556;18.728;2023-05-07T03:51:57;10.55;;;4.30;;
51248;SDS011;39642;47.556;18.728;2023-05-07T03:54:23;9.50;;;4.00;;
51248;SDS011;39642;47.556;18.728;2023-05-07T03:56:48;9.07;;;3.72;;
51248;SDS011;39642;47.556;18.728;2023-05-07T03:59:14;9.07;;;3.78;;
51248;SDS011;39642;47.556;18.728;2023-05-07T04:01:40;9.15;;;3.83;;
51248;SDS011;39642;47.556;18.728;2023-05-07T04:04:06;9.63;;;3.90;;
51248;SDS011;39642;47.556;18.728;2023-05-07T04:06:32;9.00;;;3.62;;
51248;SDS011;39642;47.556;18.728;2023-05-07T04:08:58;9.18;;;3.83;;
51248;SDS011;39642;47.556;18.728;2023-05-07T04:11:24;9.82;;;3.50;;
51248;SDS011;39642;47.556;18.728;2023-05-07T04:13:50;9.90;;;4.00;;
51248;SDS011;39642;47.556;18.728;2023-05-07T04:16:16;10.48;;;3.80;;
51248;SDS011;39642;47.556;18.728;2023-05-07T04:18:42;10.07;;;3.72;;
51248;SDS011;39642;47.556;18.728;2023-05-07T04:21:17;9.48;;;3.70;;
51248;SDS011;39642;47.556;18.728;2023-05-07T04:23:45;9.50;;;3.87;;
51248;SDS011;39642;47.556;18.728;2023-05-07T04:26:12;9.82;;;3.53;;
51248;SDS011;39642;47.556;18.728;2023-05-07T04:28:38;8.77;;;3.45;;
51248;SDS011;39642;47.556;18.728;2023-05-07T04:31:05;8.77;;;3.72;;
51248;SDS011;39642;47.556;18.728;2023-05-07T04:33:31;9.30;;;3.85;;
51248;SDS011;39642;47.556;18.728;2023-05-07T04:35:57;9.68;;;3.55;;
51248;SDS011;39642;47.556;18.728;2023-05-07T04:38:28;9.20;;;3.65;;
51248;SDS011;39642;47.556;18.728;2023-05-07T04:40:55;9.02;;;3.58;;
51248;SDS011;39642;47.556;18.728;2023-05-07T04:43:22;10.32;;;3.87;;
51248;SDS011;39642;47.556;18.728;2023-05-07T04:45:49;9.77;;;3.78;;
51248;SDS011;39642;47.556;18.728;2023-05-07T04:48:16;9.40;;;4.05;;
51248;SDS011;39642;47.556;18.728;2023-05-07T04:50:46;9.43;;;3.70;;
51248;SDS011;39642;47.556;18.728;2023-05-07T04:53:13;9.00;;;3.70;;
51248;SDS011;39642;47.556;18.728;2023-05-07T04:55:39;9.65;;;3.70;;
51248;SDS011;39642;47.556;18.728;2023-05-07T04:58:04;8.95;;;3.58;;
51248;SDS011;39642;47.556;18.728;2023-05-07T05:00:30;9.20;;;3.67;;
51248;SDS011;39642;47.556;18.728;2023-05-07T05:02:56;9.55;;;3.72;;
51248;SDS011;39642;47.556;18.728;2023-05-07T05:05:22;9.18;;;3.62;;
51248;SDS011;39642;47.556;18.728;2023-05-07T05:07:48;11.10;;;3.97;;
51248;SDS011;39642;47.556;18.728;2023-05-07T05:10:14;9.00;;;3.72;;
51248;SDS011;39642;47.556;18.728;2023-05-07T05:12:40;8.50;;;3.30;;
51248;SDS011;39642;47.556;18.728;2023-05-07T05:15:06;9.05;;;3.37;;
51248;SDS011;39642;47.556;18.728;2023-05-07T05:17:32;10.13;;;3.83;;
51248;SDS011;39642;47.556;18.728;2023-05-07T05:20:00;8.95;;;3.50;;
51248;SDS011;39642;47.556;18.728;2023-05-07T05:22:26;8.18;;;3.30;;
51248;SDS011;39642;47.556;18.728;2023-05-07T05:24:52;9.00;;;3.53;;
51248;SDS011;39642;47.556;18.728;2023-05-07T05:27:18;9.50;;;3.78;;
51248;SDS011;39642;47.556;18.728;2023-05-07T05:29:44;11.10;;;4.10;;
51248;SDS011;39642;47.556;18.728;2023-05-07T05:32:10;9.38;;;3.80;;
51248;SDS011;39642;47.556;18.728;2023-05-07T05:34:35;9.50;;;3.80;;
51248;SDS011;39642;47.556;18.728;2023-05-07T05:37:01;10.50;;;4.40;;
51248;SDS011;39642;47.556;18.728;2023-05-07T05:39:27;9.05;;;3.78;;
51248;SDS011;39642;47.556;18.728;2023-05-07T05:41:53;9.93;;;4.30;;
51248;SDS011;39642;47.556;18.728;2023-05-07T05:44:19;10.13;;;4.60;;
51248;SDS011;39642;47.556;18.728;2023-05-07T05:46:45;9.60;;;3.85;;
51248;SDS011;39642;47.556;18.728;2023-05-07T05:49:11;9.20;;;3.90;;
51248;SDS011;39642;47.556;18.728;2023-05-07T05:51:37;8.70;;;3.80;;
51248;SDS011;39642;47.556;18.728;2023-05-07T05:54:03;9.57;;;4.05;;
51248;SDS011;39642;47.556;18.728;2023-05-07T05:56:30;8.45;;;3.50;;
51248;SDS011;39642;47.556;18.728;2023-05-07T05:58:55;9.27;;;3.78;;
51248;SDS011;39642;47.556;18.728;2023-05-07T06:01:21;8.93;;;3.60;;
51248;SDS011;39642;47.556;18.728;2023-05-07T06:03:47;8.77;;;3.55;;
51248;SDS011;39642;47.556;18.728;2023-05-07T06:06:13;9.82;;;3.60;;
51248;SDS011;39642;47.556;18.728;2023-05-07T06:08:40;8.45;;;3.53;;
51248;SDS011;39642;47.556;18.728;2023-05-07T06:11:06;10.20;;;3.45;;
51248;SDS011;39642;47.556;18.728;2023-05-07T06:13:31;9.35;;;3.87;;
51248;SDS011;39642;47.556;18.728;2023-05-07T06:15:58;10.05;;;3.60;;
51248;SDS011;39642;47.556;18.728;2023-05-07T06:18:24;8.80;;;3.53;;
51248;SDS011;39642;47.556;18.728;2023-05-07T06:20:51;9.35;;;3.12;;
51248;SDS011;39642;47.556;18.728;2023-05-07T06:23:17;8.77;;;3.50;;
51248;SDS011;39642;47.556;18.728;2023-05-07T06:25:49;9.35;;;3.42;;
51248;SDS011;39642;47.556;18.728;2023-05-07T06:28:16;9.52;;;3.80;;
51248;SDS011;39642;47.556;18.728;2023-05-07T06:30:42;8.77;;;3.75;;
51248;SDS011;39642;47.556;18.728;2023-05-07T06:33:08;8.85;;;3.50;;
51248;SDS011;39642;47.556;18.728;2023-05-07T06:35:34;8.70;;;3.15;;
51248;SDS011;39642;47.556;18.728;2023-05-07T06:38:00;9.13;;;3.58;;
51248;SDS011;39642;47.556;18.728;2023-05-07T06:40:26;8.73;;;3.42;;
51248;SDS011;39642;47.556;18.728;2023-05-07T06:42:52;9.40;;;3.70;;
51248;SDS011;39642;47.556;18.728;2023-05-07T06:45:19;8.55;;;3.12;;
51248;SDS011;39642;47.556;18.728;2023-05-07T06:47:45;9.10;;;3.70;;
51248;SDS011;39642;47.556;18.728;2023-05-07T06:50:11;9.18;;;3.62;;
51248;SDS011;39642;47.556;18.728;2023-05-07T06:52:37;9.02;;;3.47;;
51248;SDS011;39642;47.556;18.728;2023-05-07T06:55:03;9.43;;;3.05;;
51248;SDS011;39642;47.556;18.728;2023-05-07T06:57:29;8.50;;;3.15;;
51248;SDS011;39642;47.556;18.728;2023-05-07T06:59:55;10.10;;;3.70;;
51248;SDS011;39642;47.556;18.728;2023-05-07T07:02:21;8.93;;;3.42;;
51248;SDS011;39642;47.556;18.728;2023-05-07T07:04:47;8.77;;;3.33;;
51248;SDS011;39642;47.556;18.728;2023-05-07T07:07:13;8.63;;;3.33;;
51248;SDS011;39642;47.556;18.728;2023-05-07T07:09:39;8.85;;;3.10;;
51248;SDS011;39642;47.556;18.728;2023-05-07T07:12:05;8.43;;;3.37;;
51248;SDS011;39642;47.556;18.728;2023-05-07T07:14:31;8.88;;;3.58;;
51248;SDS011;39642;47.556;18.728;2023-05-07T07:16:56;8.75;;;3.28;;
51248;SDS011;39642;47.556;18.728;2023-05-07T07:19:22;9.57;;;3.30;;
51248;SDS011;39642;47.556;18.728;2023-05-07T07:21:48;8.25;;;3.25;;
51248;SDS011;39642;47.556;18.728;2023-05-07T07:24:14;8.45;;;3.15;;
51248;SDS011;39642;47.556;18.728;2023-05-07T07:26:44;8.55;;;3.15;;
51248;SDS011;39642;47.556;18.728;2023-05-07T07:29:10;8.13;;;2.90;;
51248;SDS011;39642;47.556;18.728;2023-05-07T07:31:36;8.52;;;3.00;;
51248;SDS011;39642;47.556;18.728;2023-05-07T07:34:02;7.72;;;2.70;;
51248;SDS011;39642;47.556;18.728;2023-05-07T07:36:28;8.23;;;3.10;;
51248;SDS011;39642;47.556;18.728;2023-05-07T07:38:53;9.23;;;3.28;;
51248;SDS011;39642;47.556;18.728;2023-05-07T07:41:19;8.15;;;3.10;;
51248;SDS011;39642;47.556;18.728;2023-05-07T07:43:45;8.75;;;3.30;;
51248;SDS011;39642;47.556;18.728;2023-05-07T07:46:14;9.38;;;3.47;;
51248;SDS011;39642;47.556;18.728;2023-05-07T07:48:40;9.20;;;3.40;;
51248;SDS011;39642;47.556;18.728;2023-05-07T07:51:06;9.90;;;4.05;;
51248;SDS011;39642;47.556;18.728;2023-05-07T07:53:32;10.93;;;4.35;;
51248;SDS011;39642;47.556;18.728;2023-05-07T07:55:57;9.98;;;4.32;;
51248;SDS011;39642;47.556;18.728;2023-05-07T07:58:23;10.57;;;4.75;;
51248;SDS011;39642;47.556;18.728;2023-05-07T08:00:50;11.38;;;5.47;;
51248;SDS011;39642;47.556;18.728;2023-05-07T08:03:16;11.15;;;5.30;;
51248;SDS011;39642;47.556;18.728;2023-05-07T08:05:42;12.18;;;5.65;;
51248;SDS011;39642;47.556;18.728;2023-05-07T08:08:08;12.13;;;5.60;;
51248;SDS011;39642;47.556;18.728;2023-05-07T08:10:35;12.50;;;6.32;;
51248;SDS011;39642;47.556;18.728;2023-05-07T08:13:03;14.13;;;7.00;;
51248;SDS011;39642;47.556;18.728;2023-05-07T08:15:30;14.93;;;7.47;;
51248;SDS011;39642;47.556;18.728;2023-05-07T08:17:58;14.73;;;7.90;;
51248;SDS011;39642;47.556;18.728;2023-05-07T08:20:25;15.85;;;8.13;;
51248;SDS011;39642;47.556;18.728;2023-05-07T08:22:51;15.60;;;8.20;;
51248;SDS011;39642;47.556;18.728;2023-05-07T08:25:17;16.95;;;9.07;;
51248;SDS011;39642;47.556;18.728;2023-05-07T08:27:43;17.48;;;9.43;;
51248;SDS011;39642;47.556;18.728;2023-05-07T08:30:10;17.73;;;9.13;;
51248;SDS011;39642;47.556;18.728;2023-05-07T08:32:36;18.40;;;9.98;;
51248;SDS011;39642;47.556;18.728;2023-05-07T08:35:02;18.65;;;10.68;;
51248;SDS011;39642;47.556;18.728;2023-05-07T08:37:28;19.15;;;10.82;;
51248;SDS011;39642;47.556;18.728;2023-05-07T08:39:54;18.33;;;10.10;;
51248;SDS011;39642;47.556;18.728;2023-05-07T08:42:20;16.92;;;9.82;;
51248;SDS011;39642;47.556;18.728;2023-05-07T08:44:49;15.50;;;8.88;;
51248;SDS011;39642;47.556;18.728;2023-05-07T08:47:18;15.88;;;8.90;;
51248;SDS011;39642;47.556;18.728;2023-05-07T08:49:45;16.65;;;8.10;;
51248;SDS011;39642;47.556;18.728;2023-05-07T08:52:12;17.15;;;8.55;;
51248;SDS011;39642;47.556;18.728;2023-05-07T08:54:38;14.50;;;7.05;;
51248;SDS011;39642;47.556;18.728;2023-05-07T08:57:04;14.80;;;8.10;;
51248;SDS011;39642;47.556;18.728;2023-05-07T08:59:30;14.43;;;7.30;;
51248;SDS011;39642;47.556;18.728;2023-05-07T09:01:56;15.05;;;7.78;;
51248;SDS011;39642;47.556;18.728;2023-05-07T09:04:22;14.90;;;7.53;;
51248;SDS011;39642;47.556;18.728;2023-05-07T09:06:48;15.07;;;7.65;;
51248;SDS011;39642;47.556;18.728;2023-05-07T09:09:16;15.05;;;8.13;;
51248;SDS011;39642;47.556;18.728;2023-05-07T09:11:46;15.20;;;7.78;;
51248;SDS011;39642;47.556;18.728;2023-05-07T09:14:11;15.27;;;8.57;;
51248;SDS011;39642;47.556;18.728;2023-05-07T09:16:38;17.67;;;10.00;;
51248;SDS011;39642;47.556;18.728;2023-05-07T09:19:04;17.52;;;9.80;;
51248;SDS011;39642;47.556;18.728;2023-05-07T09:21:30;17.52;;;9.48;;
51248;SDS011;39642;47.556;18.728;2023-05-07T09:23:57;18.92;;;10.85;;
51248;SDS011;39642;47.556;18.728;2023-05-07T09:26:23;18.20;;;10.07;;
51248;SDS011;39642;47.556;18.728;2023-05-07T09:28:49;17.73;;;9.80;;
51248;SDS011;39642;47.556;18.728;2023-05-07T09:31:16;19.10;;;10.70;;
51248;SDS011;39642;47.556;18.728;2023-05-07T09:33:42;20.40;;;10.60;;
51248;SDS011;39642;47.556;18.728;2023-05-07T09:36:08;17.48;;;10.02;;
51248;SDS011;39642;47.556;18.728;2023-05-07T09:38:36;18.42;;;10.77;;
51248;SDS011;39642;47.556;18.728;2023-05-07T09:43:36;16.98;;;9.57;;
51248;SDS011;39642;47.556;18.728;2023-05-07T09:46:03;17.25;;;9.45;;
51248;SDS011;39642;47.556;18.728;2023-05-07T09:48:37;16.52;;;8.98;;
51248;SDS011;39642;47.556;18.728;2023-05-07T09:53:43;15.23;;;7.93;;
51248;SDS011;39642;47.556;18.728;2023-05-07T09:56:09;15.00;;;7.95;;
51248;SDS011;39642;47.556;18.728;2023-05-07T09:58:36;15.85;;;8.52;;
51248;SDS011;39642;47.556;18.728;2023-05-07T10:01:04;15.55;;;7.50;;
51248;SDS011;39642;47.556;18.728;2023-05-07T10:03:31;15.93;;;8.02;;
51248;SDS011;39642;47.556;18.728;2023-05-07T10:06:01;15.40;;;7.57;;
51248;SDS011;39642;47.556;18.728;2023-05-07T10:08:29;14.07;;;7.35;;
51248;SDS011;39642;47.556;18.728;2023-05-07T10:10:56;13.52;;;6.75;;
51248;SDS011;39642;47.556;18.728;2023-05-07T10:13:22;13.02;;;6.65;;
51248;SDS011;39642;47.556;18.728;2023-05-07T10:15:48;13.05;;;6.65;;
51248;SDS011;39642;47.556;18.728;2023-05-07T10:18:15;13.68;;;6.65;;
51248;SDS011;39642;47.556;18.728;2023-05-07T10:20:43;12.63;;;6.07;;
51248;SDS011;39642;47.556;18.728;2023-05-07T10:23:12;12.90;;;5.93;;
51248;SDS011;39642;47.556;18.728;2023-05-07T10:25:40;12.20;;;6.53;;
51248;SDS011;39642;47.556;18.728;2023-05-07T10:28:07;15.00;;;6.25;;
51248;SDS011;39642;47.556;18.728;2023-05-07T10:33:27;13.13;;;6.30;;
51248;SDS011;39642;47.556;18.728;2023-05-07T10:35:57;12.63;;;5.78;;
51248;SDS011;39642;47.556;18.728;2023-05-07T10:38:25;13.82;;;6.00;;
51248;SDS011;39642;47.556;18.728;2023-05-07T10:40:52;13.93;;;6.22;;
51248;SDS011;39642;47.556;18.728;2023-05-07T10:43:18;11.85;;;5.65;;
51248;SDS011;39642;47.556;18.728;2023-05-07T10:46:08;11.98;;;5.50;;
51248;SDS011;39642;47.556;18.728;2023-05-07T10:49:20;13.25;;;5.82;;
51248;SDS011;39642;47.556;18.728;2023-05-07T10:51:26;13.35;;;5.60;;
51248;SDS011;39642;47.556;18.728;2023-05-07T10:56:37;12.02;;;5.65;;
51248;SDS011;39642;47.556;18.728;2023-05-07T10:59:29;12.37;;;5.65;;
51248;SDS011;39642;47.556;18.728;2023-05-07T11:01:59;12.75;;;5.62;;
51248;SDS011;39642;47.556;18.728;2023-05-07T11:04:28;12.37;;;5.60;;
51248;SDS011;39642;47.556;18.728;2023-05-07T11:07:42;12.10;;;5.45;;
51248;SDS011;39642;47.556;18.728;2023-05-07T11:13:04;11.57;;;5.50;;
51248;SDS011;39642;47.556;18.728;2023-05-07T11:15:05;12.70;;;5.70;;
51248;SDS011;39642;47.556;18.728;2023-05-07T11:17:32;12.43;;;5.60;;
51248;SDS011;39642;47.556;18.728;2023-05-07T11:20:00;11.60;;;5.10;;
51248;SDS011;39642;47.556;18.728;2023-05-07T11:24:56;11.32;;;5.10;;
51248;SDS011;39642;47.556;18.728;2023-05-07T11:27:25;11.43;;;5.37;;
51248;SDS011;39642;47.556;18.728;2023-05-07T11:29:52;10.88;;;4.80;;
51248;SDS011;39642;47.556;18.728;2023-05-07T11:32:31;11.32;;;4.85;;
51248;SDS011;39642;47.556;18.728;2023-05-07T11:34:58;11.20;;;5.15;;
51248;SDS011;39642;47.556;18.728;2023-05-07T11:37:26;11.40;;;4.68;;
51248;SDS011;39642;47.556;18.728;2023-05-07T11:40:06;10.57;;;4.78;;
51248;SDS011;39642;47.556;18.728;2023-05-07T11:42:34;10.75;;;4.62;;
51248;SDS011;39642;47.556;18.728;2023-05-07T11:45:01;10.93;;;4.75;;
51248;SDS011;39642;47.556;18.728;2023-05-07T11:47:29;10.20;;;4.53;;
51248;SDS011;39642;47.556;18.728;2023-05-07T11:49:56;10.13;;;4.40;;
51248;SDS011;39642;47.556;18.728;2023-05-07T11:52:27;11.32;;;4.18;;
51248;SDS011;39642;47.556;18.728;2023-05-07T11:54:54;9.82;;;4.40;;
51248;SDS011;39642;47.556;18.728;2023-05-07T11:57:24;10.05;;;4.28;;
51248;SDS011;39642;47.556;18.728;2023-05-07T11:59:57;10.07;;;4.20;;
51248;SDS011;39642;47.556;18.728;2023-05-07T12:04:50;10.68;;;4.62;;
51248;SDS011;39642;47.556;18.728;2023-05-07T12:07:20;10.55;;;4.50;;
51248;SDS011;39642;47.556;18.728;2023-05-07T12:09:47;10.10;;;4.47;;
51248;SDS011;39642;47.556;18.728;2023-05-07T12:12:13;10.18;;;4.50;;
51248;SDS011;39642;47.556;18.728;2023-05-07T12:14:43;12.00;;;4.43;;
51248;SDS011;39642;47.556;18.728;2023-05-07T12:17:11;10.32;;;4.12;;
51248;SDS011;39642;47.556;18.728;2023-05-07T12:19:38;9.52;;;4.00;;
51248;SDS011;39642;47.556;18.728;2023-05-07T12:22:09;9.55;;;4.18;;
51248;SDS011;39642;47.556;18.728;2023-05-07T12:24:45;9.45;;;4.00;;
51248;SDS011;39642;47.556;18.728;2023-05-07T12:27:12;9.55;;;3.92;;
51248;SDS011;39642;47.556;18.728;2023-05-07T12:29:39;10.65;;;4.03;;
51248;SDS011;39642;47.556;18.728;2023-05-07T12:32:06;9.73;;;3.75;;
51248;SDS011;39642;47.556;18.728;2023-05-07T12:34:32;10.27;;;4.10;;
51248;SDS011;39642;47.556;18.728;2023-05-07T12:37:01;9.70;;;4.10;;
51248;SDS011;39642;47.556;18.728;2023-05-07T12:39:28;10.77;;;4.25;;
51248;SDS011;39642;47.556;18.728;2023-05-07T12:41:55;10.20;;;3.90;;
51248;SDS011;39642;47.556;18.728;2023-05-07T12:44:22;10.90;;;4.00;;
51248;SDS011;39642;47.556;18.728;2023-05-07T12:46:49;10.60;;;4.07;;
51248;SDS011;39642;47.556;18.728;2023-05-07T12:49:16;10.70;;;3.85;;
51248;SDS011;39642;47.556;18.728;2023-05-07T12:51:43;9.70;;;4.10;;
51248;SDS011;39642;47.556;18.728;2023-05-07T12:54:09;9.30;;;3.90;;
51248;SDS011;39642;47.556;18.728;2023-05-07T12:56:35;10.30;;;4.03;;
51248;SDS011;39642;47.556;18.728;2023-05-07T12:59:02;9.63;;;3.70;;
51248;SDS011;39642;47.556;18.728;2023-05-07T13:01:29;9.15;;;3.87;;
51248;SDS011;39642;47.556;18.728;2023-05-07T13:04:00;8.93;;;3.42;;
51248;SDS011;39642;47.556;18.728;2023-05-07T13:06:26;9.65;;;3.75;;
51248;SDS011;39642;47.556;18.728;2023-05-07T13:08:52;9.00;;;3.35;;
51248;SDS011;39642;47.556;18.728;2023-05-07T13:11:18;9.32;;;3.85;;
51248;SDS011;39642;47.556;18.728;2023-05-07T13:13:44;10.35;;;3.83;;
51248;SDS011;39642;47.556;18.728;2023-05-07T13:16:10;10.57;;;3.90;;
51248;SDS011;39642;47.556;18.728;2023-05-07T13:18:38;9.23;;;3.60;;
51248;SDS011;39642;47.556;18.728;2023-05-07T13:21:04;9.95;;;3.90;;
51248;SDS011;39642;47.556;18.728;2023-05-07T13:23:30;9.10;;;3.78;;
51248;SDS011;39642;47.556;18.728;2023-05-07T13:25:56;10.05;;;3.78;;
51248;SDS011;39642;47.556;18.728;2023-05-07T13:28:23;10.05;;;3.87;;
51248;SDS011;39642;47.556;18.728;2023-05-07T13:30:49;10.52;;;3.83;;
51248;SDS011;39642;47.556;18.728;2023-05-07T13:33:17;8.75;;;3.47;;
51248;SDS011;39642;47.556;18.728;2023-05-07T13:35:44;8.77;;;3.53;;
51248;SDS011;39642;47.556;18.728;2023-05-07T13:38:10;9.63;;;3.83;;
51248;SDS011;39642;47.556;18.728;2023-05-07T13:40:36;9.20;;;3.78;;
51248;SDS011;39642;47.556;18.728;2023-05-07T13:43:02;9.70;;;3.72;;
51248;SDS011;39642;47.556;18.728;2023-05-07T13:45:28;8.70;;;3.37;;
51248;SDS011;39642;47.556;18.728;2023-05-07T13:47:55;10.05;;;3.75;;
51248;SDS011;39642;47.556;18.728;2023-05-07T13:50:21;9.18;;;3.65;;
51248;SDS011;39642;47.556;18.728;2023-05-07T13:52:48;10.30;;;4.00;;
51248;SDS011;39642;47.556;18.728;2023-05-07T13:55:20;9.05;;;3.40;;
51248;SDS011;39642;47.556;18.728;2023-05-07T13:57:53;9.90;;;4.00;;
51248;SDS011;39642;47.556;18.728;2023-05-07T14:00:21;9.70;;;3.62;;
51248;SDS011;39642;47.556;18.728;2023-05-07T14:02:47;8.73;;;3.55;;
51248;SDS011;39642;47.556;18.728;2023-05-07T14:05:13;9.18;;;3.70;;
51248;SDS011;39642;47.556;18.728;2023-05-07T14:07:39;8.95;;;3.62;;
51248;SDS011;39642;47.556;18.728;2023-05-07T14:10:05;9.07;;;3.70;;
51248;SDS011;39642;47.556;18.728;2023-05-07T14:12:32;8.77;;;3.80;;
51248;SDS011;39642;47.556;18.728;2023-05-07T14:14:58;9.32;;;3.90;;
51248;SDS011;39642;47.556;18.728;2023-05-07T14:17:24;9.65;;;3.95;;
51248;SDS011;39642;47.556;18.728;2023-05-07T14:19:53;10.40;;;3.80;;
51248;SDS011;39642;47.556;18.728;2023-05-07T14:22:22;9.95;;;3.97;;
51248;SDS011;39642;47.556;18.728;2023-05-07T14:24:48;9.60;;;3.85;;
51248;SDS011;39642;47.556;18.728;2023-05-07T14:27:15;9.45;;;3.83;;
51248;SDS011;39642;47.556;18.728;2023-05-07T14:29:41;9.70;;;4.32;;
51248;SDS011;39642;47.556;18.728;2023-05-07T14:32:07;9.38;;;3.62;;
51248;SDS011;39642;47.556;18.728;2023-05-07T14:34:33;9.25;;;3.45;;
51248;SDS011;39642;47.556;18.728;2023-05-07T14:36:59;9.57;;;3.90;;
51248;SDS011;39642;47.556;18.728;2023-05-07T14:39:26;9.65;;;3.92;;
51248;SDS011;39642;47.556;18.728;2023-05-07T14:41:51;9.30;;;3.60;;
51248;SDS011;39642;47.556;18.728;2023-05-07T14:44:20;9.20;;;3.60;;
51248;SDS011;39642;47.556;18.728;2023-05-07T14:46:46;9.43;;;3.67;;